sensor_id;sensor_type;location;lat;lon;timestamp;temperature;humidity
9973;DHT22;5027;53.560;10.062;2023-04-24T00:01:05;18.00;99.90
9973;DHT22;5027;53.560;10.062;2023-04-24T00:03:34;18.00;99.90
9973;DHT22;5027;53.560;10.062;2023-04-24T00:06:01;18.00;99.90
9973;DHT22;5027;53.560;10.062;2023-04-24T00:08:29;17.90;99.90
9973;DHT22;5027;53.560;10.062;2023-04-24T00:10:55;17.90;99.90
9973;DHT22;5027;53.560;10.062;2023-04-24T00:13:22;17.90;99.90
9973;DHT22;5027;53.560;10.062;2023-04-24T00:15:49;17.90;99.90
9973;DHT22;5027;53.560;10.062;2023-04-24T00:18:16;17.90;99.90
9973;DHT22;5027;53.560;10.062;2023-04-24T00:20:42;17.90;99.90
9973;DHT22;5027;53.560;10.062;2023-04-24T00:23:10;17.90;99.90
9973;DHT22;5027;53.560;10.062;2023-04-24T00:25:36;18.00;99.90
9973;DHT22;5027;53.560;10.062;2023-04-24T00:28:03;17.90;99.90
9973;DHT22;5027;53.560;10.062;2023-04-24T00:30:30;18.00;99.90
9973;DHT22;5027;53.560;10.062;2023-04-24T00:32:57;18.00;99.90
9973;DHT22;5027;53.560;10.062;2023-04-24T00:35:24;18.00;99.90
9973;DHT22;5027;53.560;10.062;2023-04-24T00:37:51;17.90;99.90
9973;DHT22;5027;53.560;10.062;2023-04-24T00:40:17;17.90;99.90
9973;DHT22;5027;53.560;10.062;2023-04-24T00:42:44;17.90;99.90
9973;DHT22;5027;53.560;10.062;2023-04-24T00:45:12;17.90;99.90
9973;DHT22;5027;53.560;10.062;2023-04-24T00:47:40;17.90;99.90
9973;DHT22;5027;53.560;10.062;2023-04-24T00:50:08;17.90;99.90
9973;DHT22;5027;53.560;10.062;2023-04-24T00:52:35;17.90;99.90
9973;DHT22;5027;53.560;10.062;2023-04-24T00:55:02;17.80;99.90
9973;DHT22;5027;53.560;10.062;2023-04-24T00:57:30;17.80;99.90
9973;DHT22;5027;53.560;10.062;2023-04-24T00:59:57;17.80;99.90
9973;DHT22;5027;53.560;10.062;2023-04-24T01:02:24;17.80;99.90
9973;DHT22;5027;53.560;10.062;2023-04-24T01:04:51;17.80;99.90
9973;DHT22;5027;53.560;10.062;2023-04-24T01:07:21;17.80;99.90
9973;DHT22;5027;53.560;10.062;2023-04-24T01:09:50;17.70;99.90
9973;DHT22;5027;53.560;10.062;2023-04-24T01:12:19;17.70;99.90
9973;DHT22;5027;53.560;10.062;2023-04-24T01:14:45;17.60;99.90
9973;DHT22;5027;53.560;10.062;2023-04-24T01:17:14;17.70;99.90
9973;DHT22;5027;53.560;10.062;2023-04-24T01:19:41;17.60;99.90
9973;DHT22;5027;53.560;10.062;2023-04-24T01:22:16;17.60;99.90
9973;DHT22;5027;53.560;10.062;2023-04-24T01:24:43;17.60;99.90
9973;DHT22;5027;53.560;10.062;2023-04-24T01:27:11;17.70;99.90
9973;DHT22;5027;53.560;10.062;2023-04-24T01:29:38;17.60;99.90
9973;DHT22;5027;53.560;10.062;2023-04-24T01:32:06;17.60;99.90
9973;DHT22;5027;53.560;10.062;2023-04-24T01:34:33;17.60;99.90
9973;DHT22;5027;53.560;10.062;2023-04-24T01:37:00;17.60;99.90
9973;DHT22;5027;53.560;10.062;2023-04-24T01:39:27;17.60;99.90
9973;DHT22;5027;53.560;10.062;2023-04-24T01:41:55;17.60;99.90
9973;DHT22;5027;53.560;10.062;2023-04-24T01:44:23;17.70;99.90
9973;DHT22;5027;53.560;10.062;2023-04-24T01:46:49;17.60;99.90
9973;DHT22;5027;53.560;10.062;2023-04-24T01:49:17;17.60;99.90
9973;DHT22;5027;53.560;10.062;2023-04-24T01:51:44;17.70;99.90
9973;DHT22;5027;53.560;10.062;2023-04-24T01:54:11;17.60;99.90
9973;DHT22;5027;53.560;10.062;2023-04-24T01:56:41;17.50;99.90
9973;DHT22;5027;53.560;10.062;2023-04-24T01:59:10;17.40;99.90
9973;DHT22;5027;53.560;10.062;2023-04-24T02:01:38;17.20;99.90
9973;DHT22;5027;53.560;10.062;2023-04-24T02:04:05;17.20;99.90
9973;DHT22;5027;53.560;10.062;2023-04-24T02:06:34;17.20;99.90
9973;DHT22;5027;53.560;10.062;2023-04-24T02:09:01;17.20;99.90
9973;DHT22;5027;53.560;10.062;2023-04-24T02:11:29;17.00;99.90
9973;DHT22;5027;53.560;10.062;2023-04-24T02:13:57;17.20;99.90
9973;DHT22;5027;53.560;10.062;2023-04-24T02:16:23;17.20;99.90
9973;DHT22;5027;53.560;10.062;2023-04-24T02:18:50;17.10;99.90
9973;DHT22;5027;53.560;10.062;2023-04-24T02:21:17;17.10;99.90
9973;DHT22;5027;53.560;10.062;2023-04-24T02:23:43;17.00;99.90
9973;DHT22;5027;53.560;10.062;2023-04-24T02:26:12;17.00;99.90
9973;DHT22;5027;53.560;10.062;2023-04-24T02:28:39;17.00;99.90
9973;DHT22;5027;53.560;10.062;2023-04-24T02:31:06;17.10;99.90
9973;DHT22;5027;53.560;10.062;2023-04-24T02:33:33;17.20;99.90
9973;DHT22;5027;53.560;10.062;2023-04-24T02:35:59;17.20;99.90
9973;DHT22;5027;53.560;10.062;2023-04-24T02:38:26;17.20;99.90
9973;DHT22;5027;53.560;10.062;2023-04-24T02:40:53;17.20;99.90
9973;DHT22;5027;53.560;10.062;2023-04-24T02:43:19;17.10;99.90
9973;DHT22;5027;53.560;10.062;2023-04-24T02:45:46;17.00;99.90
9973;DHT22;5027;53.560;10.062;2023-04-24T02:48:13;16.80;99.90
9973;DHT22;5027;53.560;10.062;2023-04-24T02:50:40;16.70;99.90
9973;DHT22;5027;53.560;10.062;2023-04-24T02:53:07;16.80;99.90
9973;DHT22;5027;53.560;10.062;2023-04-24T02:55:33;16.90;99.90
9973;DHT22;5027;53.560;10.062;2023-04-24T02:58:00;17.00;99.90
9973;DHT22;5027;53.560;10.062;2023-04-24T03:00:27;16.90;99.90
9973;DHT22;5027;53.560;10.062;2023-04-24T03:02:54;16.90;99.90
9973;DHT22;5027;53.560;10.062;2023-04-24T03:05:21;16.90;99.90
9973;DHT22;5027;53.560;10.062;2023-04-24T03:07:48;16.90;99.90
9973;DHT22;5027;53.560;10.062;2023-04-24T03:10:14;16.80;99.90
9973;DHT22;5027;53.560;10.062;2023-04-24T03:12:41;16.80;99.90
9973;DHT22;5027;53.560;10.062;2023-04-24T03:15:08;16.70;99.90
9973;DHT22;5027;53.560;10.062;2023-04-24T03:17:36;16.60;99.90
9973;DHT22;5027;53.560;10.062;2023-04-24T03:20:05;16.60;99.90
9973;DHT22;5027;53.560;10.062;2023-04-24T03:22:32;16.70;99.90
9973;DHT22;5027;53.560;10.062;2023-04-24T03:25:01;16.70;99.90
9973;DHT22;5027;53.560;10.062;2023-04-24T03:27:28;16.60;99.90
9973;DHT22;5027;53.560;10.062;2023-04-24T03:30:19;16.60;99.90
9973;DHT22;5027;53.560;10.062;2023-04-24T03:32:50;16.60;99.90
9973;DHT22;5027;53.560;10.062;2023-04-24T03:35:22;16.60;99.90
9973;DHT22;5027;53.560;10.062;2023-04-24T03:37:50;16.40;99.90
9973;DHT22;5027;53.560;10.062;2023-04-24T03:40:35;16.30;99.90
9973;DHT22;5027;53.560;10.062;2023-04-24T03:43:06;16.40;99.90
9973;DHT22;5027;53.560;10.062;2023-04-24T03:45:33;16.30;99.90
9973;DHT22;5027;53.560;10.062;2023-04-24T03:48:01;16.20;99.90
9973;DHT22;5027;53.560;10.062;2023-04-24T03:50:28;16.20;99.90
9973;DHT22;5027;53.560;10.062;2023-04-24T03:52:56;16.10;99.90
9973;DHT22;5027;53.560;10.062;2023-04-24T03:55:33;16.30;99.90
9973;DHT22;5027;53.560;10.062;2023-04-24T03:58:00;16.20;99.90
9973;DHT22;5027;53.560;10.062;2023-04-24T04:00:27;16.00;99.90
9973;DHT22;5027;53.560;10.062;2023-04-24T04:03:14;16.20;99.90
9973;DHT22;5027;53.560;10.062;2023-04-24T04:05:41;16.20;99.90
9973;DHT22;5027;53.560;10.062;2023-04-24T04:08:08;16.20;99.90
9973;DHT22;5027;53.560;10.062;2023-04-24T04:10:34;16.10;99.90
9973;DHT22;5027;53.560;10.062;2023-04-24T04:13:04;16.00;99.90
9973;DHT22;5027;53.560;10.062;2023-04-24T04:15:31;16.20;99.90
9973;DHT22;5027;53.560;10.062;2023-04-24T04:17:58;16.20;99.90
9973;DHT22;5027;53.560;10.062;2023-04-24T04:20:24;16.20;99.90
9973;DHT22;5027;53.560;10.062;2023-04-24T04:22:51;16.20;99.90
9973;DHT22;5027;53.560;10.062;2023-04-24T04:25:26;16.30;99.90
9973;DHT22;5027;53.560;10.062;2023-04-24T04:27:53;16.20;99.90
9973;DHT22;5027;53.560;10.062;2023-04-24T04:30:20;16.10;99.90
9973;DHT22;5027;53.560;10.062;2023-04-24T04:32:54;15.90;99.90
9973;DHT22;5027;53.560;10.062;2023-04-24T04:35:21;15.90;99.90
9973;DHT22;5027;53.560;10.062;2023-04-24T04:37:50;15.90;99.90
9973;DHT22;5027;53.560;10.062;2023-04-24T04:40:36;16.00;99.90
9973;DHT22;5027;53.560;10.062;2023-04-24T04:43:05;16.00;99.90
9973;DHT22;5027;53.560;10.062;2023-04-24T04:45:40;16.10;99.90
9973;DHT22;5027;53.560;10.062;2023-04-24T04:48:27;16.10;99.90
9973;DHT22;5027;53.560;10.062;2023-04-24T04:50:55;16.00;99.90
9973;DHT22;5027;53.560;10.062;2023-04-24T04:53:23;15.70;99.90
9973;DHT22;5027;53.560;10.062;2023-04-24T04:55:50;15.90;99.90
9973;DHT22;5027;53.560;10.062;2023-04-24T04:58:18;16.10;99.90
9973;DHT22;5027;53.560;10.062;2023-04-24T05:00:47;16.00;99.90
9973;DHT22;5027;53.560;10.062;2023-04-24T05:03:25;16.00;99.90
9973;DHT22;5027;53.560;10.062;2023-04-24T05:05:58;16.10;99.90
9973;DHT22;5027;53.560;10.062;2023-04-24T05:08:25;16.10;99.80
9973;DHT22;5027;53.560;10.062;2023-04-24T05:10:55;16.20;99.80
9973;DHT22;5027;53.560;10.062;2023-04-24T05:13:22;16.30;99.90
9973;DHT22;5027;53.560;10.062;2023-04-24T05:16:08;16.20;99.70
9973;DHT22;5027;53.560;10.062;2023-04-24T05:18:35;16.20;99.80
9973;DHT22;5027;53.560;10.062;2023-04-24T05:21:03;16.10;99.70
9973;DHT22;5027;53.560;10.062;2023-04-24T05:23:30;16.20;99.70
9973;DHT22;5027;53.560;10.062;2023-04-24T05:25:57;15.90;99.90
9973;DHT22;5027;53.560;10.062;2023-04-24T05:28:23;16.00;99.70
9973;DHT22;5027;53.560;10.062;2023-04-24T05:31:03;16.20;99.70
9973;DHT22;5027;53.560;10.062;2023-04-24T05:33:30;16.10;99.60
9973;DHT22;5027;53.560;10.062;2023-04-24T05:35:57;16.10;99.50
9973;DHT22;5027;53.560;10.062;2023-04-24T05:38:24;16.00;99.70
9973;DHT22;5027;53.560;10.062;2023-04-24T05:40:51;15.90;99.80
9973;DHT22;5027;53.560;10.062;2023-04-24T05:43:17;16.10;99.80
9973;DHT22;5027;53.560;10.062;2023-04-24T05:45:44;15.80;99.60
9973;DHT22;5027;53.560;10.062;2023-04-24T05:48:11;15.70;99.80
9973;DHT22;5027;53.560;10.062;2023-04-24T05:50:37;15.80;99.90
9973;DHT22;5027;53.560;10.062;2023-04-24T05:53:04;16.00;99.90
9973;DHT22;5027;53.560;10.062;2023-04-24T05:55:35;15.80;99.60
9973;DHT22;5027;53.560;10.062;2023-04-24T05:58:02;15.90;99.90
9973;DHT22;5027;53.560;10.062;2023-04-24T06:00:29;16.10;99.80
9973;DHT22;5027;53.560;10.062;2023-04-24T06:03:04;15.90;99.90
9973;DHT22;5027;53.560;10.062;2023-04-24T06:05:31;15.90;99.90
9973;DHT22;5027;53.560;10.062;2023-04-24T06:07:58;16.00;99.90
9973;DHT22;5027;53.560;10.062;2023-04-24T06:10:30;16.10;99.80
9973;DHT22;5027;53.560;10.062;2023-04-24T06:12:57;16.10;99.90
9973;DHT22;5027;53.560;10.062;2023-04-24T06:15:31;16.00;99.80
9973;DHT22;5027;53.560;10.062;2023-04-24T06:18:03;15.80;99.50
9973;DHT22;5027;53.560;10.062;2023-04-24T06:20:30;15.80;99.90
9973;DHT22;5027;53.560;10.062;2023-04-24T06:22:57;16.10;99.80
9973;DHT22;5027;53.560;10.062;2023-04-24T06:25:27;16.10;99.70
9973;DHT22;5027;53.560;10.062;2023-04-24T06:27:54;15.90;99.70
9973;DHT22;5027;53.560;10.062;2023-04-24T06:30:21;15.90;99.70
9973;DHT22;5027;53.560;10.062;2023-04-24T06:32:48;15.90;99.40
9973;DHT22;5027;53.560;10.062;2023-04-24T06:35:15;16.00;99.30
9973;DHT22;5027;53.560;10.062;2023-04-24T06:37:42;16.00;99.50
9973;DHT22;5027;53.560;10.062;2023-04-24T06:40:09;16.00;99.40
9973;DHT22;5027;53.560;10.062;2023-04-24T06:42:36;16.10;99.30
9973;DHT22;5027;53.560;10.062;2023-04-24T06:45:04;16.00;99.10
9973;DHT22;5027;53.560;10.062;2023-04-24T06:47:31;15.90;99.30
9973;DHT22;5027;53.560;10.062;2023-04-24T06:49:58;15.90;99.10
9973;DHT22;5027;53.560;10.062;2023-04-24T06:52:25;15.60;99.30
9973;DHT22;5027;53.560;10.062;2023-04-24T06:54:52;15.70;99.60
9973;DHT22;5027;53.560;10.062;2023-04-24T06:57:19;15.90;99.30
9973;DHT22;5027;53.560;10.062;2023-04-24T06:59:46;16.10;99.30
9973;DHT22;5027;53.560;10.062;2023-04-24T07:02:13;16.30;99.20
9973;DHT22;5027;53.560;10.062;2023-04-24T07:04:40;16.00;98.60
9973;DHT22;5027;53.560;10.062;2023-04-24T07:07:08;15.90;99.10
9973;DHT22;5027;53.560;10.062;2023-04-24T07:09:35;16.00;99.30
9973;DHT22;5027;53.560;10.062;2023-04-24T07:12:05;16.30;99.00
9973;DHT22;5027;53.560;10.062;2023-04-24T07:14:32;16.60;99.00
9973;DHT22;5027;53.560;10.062;2023-04-24T07:16:58;16.20;99.00
9973;DHT22;5027;53.560;10.062;2023-04-24T07:19:25;16.20;98.80
9973;DHT22;5027;53.560;10.062;2023-04-24T07:21:52;16.10;98.80
9973;DHT22;5027;53.560;10.062;2023-04-24T07:24:21;16.20;99.00
9973;DHT22;5027;53.560;10.062;2023-04-24T07:26:51;16.40;98.50
9973;DHT22;5027;53.560;10.062;2023-04-24T07:29:18;16.20;98.90
9973;DHT22;5027;53.560;10.062;2023-04-24T07:31:45;16.10;98.70
9973;DHT22;5027;53.560;10.062;2023-04-24T07:34:12;16.20;99.90
9973;DHT22;5027;53.560;10.062;2023-04-24T07:36:40;16.40;99.00
9973;DHT22;5027;53.560;10.062;2023-04-24T07:39:07;16.30;98.80
9973;DHT22;5027;53.560;10.062;2023-04-24T07:41:34;16.50;98.70
9973;DHT22;5027;53.560;10.062;2023-04-24T07:44:01;16.60;99.20
9973;DHT22;5027;53.560;10.062;2023-04-24T07:46:29;16.60;98.60
9973;DHT22;5027;53.560;10.062;2023-04-24T07:48:56;16.60;98.40
9973;DHT22;5027;53.560;10.062;2023-04-24T07:51:39;16.60;98.10
9973;DHT22;5027;53.560;10.062;2023-04-24T07:54:05;16.50;98.60
9973;DHT22;5027;53.560;10.062;2023-04-24T07:56:33;16.50;98.10
9973;DHT22;5027;53.560;10.062;2023-04-24T07:59:00;16.40;98.30
9973;DHT22;5027;53.560;10.062;2023-04-24T08:01:27;16.70;98.50
9973;DHT22;5027;53.560;10.062;2023-04-24T08:03:54;16.50;98.10
9973;DHT22;5027;53.560;10.062;2023-04-24T08:06:22;16.50;98.30
9973;DHT22;5027;53.560;10.062;2023-04-24T08:08:48;16.30;98.30
9973;DHT22;5027;53.560;10.062;2023-04-24T08:11:15;16.40;98.50
9973;DHT22;5027;53.560;10.062;2023-04-24T08:13:42;16.40;98.00
9973;DHT22;5027;53.560;10.062;2023-04-24T08:16:08;16.40;98.40
9973;DHT22;5027;53.560;10.062;2023-04-24T08:18:35;16.30;98.50
9973;DHT22;5027;53.560;10.062;2023-04-24T08:21:05;16.30;98.50
9973;DHT22;5027;53.560;10.062;2023-04-24T08:23:32;16.30;98.60
9973;DHT22;5027;53.560;10.062;2023-04-24T08:25:59;16.30;99.10
9973;DHT22;5027;53.560;10.062;2023-04-24T08:28:26;16.30;98.90
9973;DHT22;5027;53.560;10.062;2023-04-24T08:30:52;16.50;99.00
9973;DHT22;5027;53.560;10.062;2023-04-24T08:33:24;16.60;98.30
9973;DHT22;5027;53.560;10.062;2023-04-24T08:35:51;16.20;98.30
9973;DHT22;5027;53.560;10.062;2023-04-24T08:38:17;16.30;98.70
9973;DHT22;5027;53.560;10.062;2023-04-24T08:40:44;16.40;99.90
9973;DHT22;5027;53.560;10.062;2023-04-24T08:43:12;16.20;98.40
9973;DHT22;5027;53.560;10.062;2023-04-24T08:45:40;16.20;98.80
9973;DHT22;5027;53.560;10.062;2023-04-24T08:48:07;16.10;98.20
9973;DHT22;5027;53.560;10.062;2023-04-24T08:50:52;16.10;98.70
9973;DHT22;5027;53.560;10.062;2023-04-24T08:53:19;16.20;98.00
9973;DHT22;5027;53.560;10.062;2023-04-24T08:55:47;16.00;98.30
9973;DHT22;5027;53.560;10.062;2023-04-24T08:58:16;15.90;97.80
9973;DHT22;5027;53.560;10.062;2023-04-24T09:00:44;16.20;98.10
9973;DHT22;5027;53.560;10.062;2023-04-24T09:03:16;16.20;97.90
9973;DHT22;5027;53.560;10.062;2023-04-24T09:05:47;16.20;98.10
9973;DHT22;5027;53.560;10.062;2023-04-24T09:08:14;16.10;98.00
9973;DHT22;5027;53.560;10.062;2023-04-24T09:10:42;16.00;98.10
9973;DHT22;5027;53.560;10.062;2023-04-24T09:13:09;15.90;98.00
9973;DHT22;5027;53.560;10.062;2023-04-24T09:15:38;16.00;98.10
9973;DHT22;5027;53.560;10.062;2023-04-24T09:18:05;16.20;98.00
9973;DHT22;5027;53.560;10.062;2023-04-24T09:20:32;16.20;98.30
9973;DHT22;5027;53.560;10.062;2023-04-24T09:22:59;16.20;98.20
9973;DHT22;5027;53.560;10.062;2023-04-24T09:25:32;16.20;98.10
9973;DHT22;5027;53.560;10.062;2023-04-24T09:28:01;15.90;98.30
9973;DHT22;5027;53.560;10.062;2023-04-24T09:30:29;16.10;98.40
9973;DHT22;5027;53.560;10.062;2023-04-24T09:33:16;16.00;98.10
9973;DHT22;5027;53.560;10.062;2023-04-24T09:35:49;16.00;98.60
9973;DHT22;5027;53.560;10.062;2023-04-24T09:38:16;16.30;98.30
9973;DHT22;5027;53.560;10.062;2023-04-24T09:40:43;16.20;98.40
9973;DHT22;5027;53.560;10.062;2023-04-24T09:43:11;16.20;98.30
9973;DHT22;5027;53.560;10.062;2023-04-24T09:45:40;16.30;98.00
9973;DHT22;5027;53.560;10.062;2023-04-24T09:48:09;16.10;98.20
9973;DHT22;5027;53.560;10.062;2023-04-24T09:50:36;16.30;98.40
9973;DHT22;5027;53.560;10.062;2023-04-24T09:53:05;16.20;98.00
9973;DHT22;5027;53.560;10.062;2023-04-24T09:55:39;16.20;98.40
9973;DHT22;5027;53.560;10.062;2023-04-24T09:58:08;16.30;99.10
9973;DHT22;5027;53.560;10.062;2023-04-24T10:00:34;16.30;98.30
9973;DHT22;5027;53.560;10.062;2023-04-24T10:03:03;16.30;98.20
9973;DHT22;5027;53.560;10.062;2023-04-24T10:05:35;16.40;98.40
9973;DHT22;5027;53.560;10.062;2023-04-24T10:08:07;16.60;97.90
9973;DHT22;5027;53.560;10.062;2023-04-24T10:10:38;16.70;98.10
9973;DHT22;5027;53.560;10.062;2023-04-24T10:13:07;16.60;97.60
9973;DHT22;5027;53.560;10.062;2023-04-24T10:15:35;16.40;98.00
9973;DHT22;5027;53.560;10.062;2023-04-24T10:18:04;16.50;98.00
9973;DHT22;5027;53.560;10.062;2023-04-24T10:20:34;16.50;98.20
9973;DHT22;5027;53.560;10.062;2023-04-24T10:23:01;16.40;98.10
9973;DHT22;5027;53.560;10.062;2023-04-24T10:25:30;16.40;98.40
9973;DHT22;5027;53.560;10.062;2023-04-24T10:27:58;16.30;98.10
9973;DHT22;5027;53.560;10.062;2023-04-24T10:30:28;16.10;98.60
9973;DHT22;5027;53.560;10.062;2023-04-24T10:32:55;16.20;98.30
9973;DHT22;5027;53.560;10.062;2023-04-24T10:35:22;16.30;98.30
9973;DHT22;5027;53.560;10.062;2023-04-24T10:37:57;16.10;98.60
9973;DHT22;5027;53.560;10.062;2023-04-24T10:40:31;16.10;98.40
9973;DHT22;5027;53.560;10.062;2023-04-24T10:43:02;16.00;98.90
9973;DHT22;5027;53.560;10.062;2023-04-24T10:45:29;16.10;98.80
9973;DHT22;5027;53.560;10.062;2023-04-24T10:48:01;16.10;98.60
9973;DHT22;5027;53.560;10.062;2023-04-24T10:50:48;16.10;98.80
9973;DHT22;5027;53.560;10.062;2023-04-24T10:53:19;16.20;99.00
9973;DHT22;5027;53.560;10.062;2023-04-24T10:56:03;16.30;98.60
9973;DHT22;5027;53.560;10.062;2023-04-24T10:58:56;16.30;99.90
9973;DHT22;5027;53.560;10.062;2023-04-24T11:01:28;16.50;98.60
9973;DHT22;5027;53.560;10.062;2023-04-24T11:04:00;16.20;97.90
9973;DHT22;5027;53.560;10.062;2023-04-24T11:09:09;16.20;98.00
9973;DHT22;5027;53.560;10.062;2023-04-24T11:11:37;16.20;97.80
9973;DHT22;5027;53.560;10.062;2023-04-24T11:14:07;16.30;97.20
9973;DHT22;5027;53.560;10.062;2023-04-24T11:16:43;16.40;97.50
9973;DHT22;5027;53.560;10.062;2023-04-24T11:19:21;16.50;97.00
9973;DHT22;5027;53.560;10.062;2023-04-24T11:21:59;16.50;97.30
9973;DHT22;5027;53.560;10.062;2023-04-24T11:24:39;16.60;97.60
9973;DHT22;5027;53.560;10.062;2023-04-24T11:27:19;16.70;97.30
9973;DHT22;5027;53.560;10.062;2023-04-24T11:40:02;16.30;97.00
9973;DHT22;5027;53.560;10.062;2023-04-24T11:42:34;16.30;97.00
9973;DHT22;5027;53.560;10.062;2023-04-24T11:45:01;16.20;97.10
9973;DHT22;5027;53.560;10.062;2023-04-24T11:47:33;16.30;96.90
9973;DHT22;5027;53.560;10.062;2023-04-24T11:50:01;16.50;96.90
9973;DHT22;5027;53.560;10.062;2023-04-24T11:52:29;16.60;96.60
9973;DHT22;5027;53.560;10.062;2023-04-24T11:54:56;16.40;96.10
9973;DHT22;5027;53.560;10.062;2023-04-24T11:57:24;16.40;95.70
9973;DHT22;5027;53.560;10.062;2023-04-24T11:59:54;16.50;95.60
9973;DHT22;5027;53.560;10.062;2023-04-24T12:04:48;16.60;96.60
9973;DHT22;5027;53.560;10.062;2023-04-24T12:07:15;16.50;95.70
9973;DHT22;5027;53.560;10.062;2023-04-24T12:09:54;16.40;96.60
9973;DHT22;5027;53.560;10.062;2023-04-24T12:12:25;16.40;96.00
9973;DHT22;5027;53.560;10.062;2023-04-24T12:14:58;16.50;95.80
9973;DHT22;5027;53.560;10.062;2023-04-24T12:17:35;16.60;95.90
9973;DHT22;5027;53.560;10.062;2023-04-24T12:20:07;16.60;95.90
9973;DHT22;5027;53.560;10.062;2023-04-24T12:22:45;16.90;96.20
9973;DHT22;5027;53.560;10.062;2023-04-24T12:25:19;16.90;95.50
9973;DHT22;5027;53.560;10.062;2023-04-24T12:27:46;16.70;95.30
9973;DHT22;5027;53.560;10.062;2023-04-24T12:30:15;16.40;95.30
9973;DHT22;5027;53.560;10.062;2023-04-24T12:32:46;16.30;95.30
9973;DHT22;5027;53.560;10.062;2023-04-24T12:35:19;16.40;95.70
9973;DHT22;5027;53.560;10.062;2023-04-24T12:37:49;16.40;96.00
9973;DHT22;5027;53.560;10.062;2023-04-24T12:40:18;16.40;95.90
9973;DHT22;5027;53.560;10.062;2023-04-24T12:42:46;16.50;96.40
9973;DHT22;5027;53.560;10.062;2023-04-24T12:45:14;16.50;95.80
9973;DHT22;5027;53.560;10.062;2023-04-24T12:47:41;16.50;96.00
9973;DHT22;5027;53.560;10.062;2023-04-24T12:50:10;16.40;96.10
9973;DHT22;5027;53.560;10.062;2023-04-24T12:52:37;16.50;97.60
9973;DHT22;5027;53.560;10.062;2023-04-24T12:55:06;16.50;96.20
9973;DHT22;5027;53.560;10.062;2023-04-24T12:57:37;16.40;96.50
9973;DHT22;5027;53.560;10.062;2023-04-24T13:00:06;16.60;96.40
9973;DHT22;5027;53.560;10.062;2023-04-24T13:02:33;16.60;97.10
9973;DHT22;5027;53.560;10.062;2023-04-24T13:05:01;16.60;96.50
9973;DHT22;5027;53.560;10.062;2023-04-24T13:07:28;16.20;96.40
9973;DHT22;5027;53.560;10.062;2023-04-24T13:09:55;16.00;98.30
9973;DHT22;5027;53.560;10.062;2023-04-24T13:12:23;16.10;99.30
9973;DHT22;5027;53.560;10.062;2023-04-24T13:14:53;16.10;99.90
9973;DHT22;5027;53.560;10.062;2023-04-24T13:17:20;16.20;99.90
9973;DHT22;5027;53.560;10.062;2023-04-24T13:19:49;16.30;99.90
9973;DHT22;5027;53.560;10.062;2023-04-24T13:22:16;16.10;99.70
9973;DHT22;5027;53.560;10.062;2023-04-24T13:24:45;16.20;99.40
9973;DHT22;5027;53.560;10.062;2023-04-24T13:27:11;15.90;99.20
9973;DHT22;5027;53.560;10.062;2023-04-24T13:29:38;15.90;99.10
9973;DHT22;5027;53.560;10.062;2023-04-24T13:32:04;15.90;99.60
9973;DHT22;5027;53.560;10.062;2023-04-24T13:34:32;15.90;99.90
9973;DHT22;5027;53.560;10.062;2023-04-24T13:37:01;15.80;99.90
9973;DHT22;5027;53.560;10.062;2023-04-24T13:39:28;16.00;99.90
9973;DHT22;5027;53.560;10.062;2023-04-24T13:41:54;16.10;99.90
9973;DHT22;5027;53.560;10.062;2023-04-24T13:44:22;16.20;99.70
9973;DHT22;5027;53.560;10.062;2023-04-24T13:46:52;16.30;99.90
9973;DHT22;5027;53.560;10.062;2023-04-24T13:49:21;16.20;99.80
9973;DHT22;5027;53.560;10.062;2023-04-24T13:51:48;16.10;99.10
9973;DHT22;5027;53.560;10.062;2023-04-24T13:54:14;16.10;99.60
9973;DHT22;5027;53.560;10.062;2023-04-24T13:56:41;16.10;99.20
9973;DHT22;5027;53.560;10.062;2023-04-24T13:59:08;16.10;99.10
9973;DHT22;5027;53.560;10.062;2023-04-24T14:01:35;16.20;99.80
9973;DHT22;5027;53.560;10.062;2023-04-24T14:04:02;16.30;99.50
9973;DHT22;5027;53.560;10.062;2023-04-24T14:06:29;16.20;99.20
9973;DHT22;5027;53.560;10.062;2023-04-24T14:08:57;16.00;99.40
9973;DHT22;5027;53.560;10.062;2023-04-24T14:11:23;15.90;99.50
9973;DHT22;5027;53.560;10.062;2023-04-24T14:13:50;15.80;99.60
9973;DHT22;5027;53.560;10.062;2023-04-24T14:16:17;15.80;99.40
9973;DHT22;5027;53.560;10.062;2023-04-24T14:18:44;15.80;99.60
9973;DHT22;5027;53.560;10.062;2023-04-24T14:21:11;15.90;99.40
9973;DHT22;5027;53.560;10.062;2023-04-24T14:23:37;16.00;99.70
9973;DHT22;5027;53.560;10.062;2023-04-24T14:26:04;16.20;99.30
9973;DHT22;5027;53.560;10.062;2023-04-24T14:28:31;16.10;99.40
9973;DHT22;5027;53.560;10.062;2023-04-24T14:30:57;16.20;98.40
9973;DHT22;5027;53.560;10.062;2023-04-24T14:33:24;15.90;98.50
9973;DHT22;5027;53.560;10.062;2023-04-24T14:35:51;15.90;98.70
9973;DHT22;5027;53.560;10.062;2023-04-24T14:38:17;16.10;98.30
9973;DHT22;5027;53.560;10.062;2023-04-24T14:40:44;16.00;98.20
9973;DHT22;5027;53.560;10.062;2023-04-24T14:43:31;16.10;98.40
9973;DHT22;5027;53.560;10.062;2023-04-24T14:45:59;16.20;98.40
9973;DHT22;5027;53.560;10.062;2023-04-24T14:48:25;16.10;97.80
9973;DHT22;5027;53.560;10.062;2023-04-24T14:50:52;16.00;98.10
9973;DHT22;5027;53.560;10.062;2023-04-24T14:53:19;16.20;99.30
9973;DHT22;5027;53.560;10.062;2023-04-24T14:55:45;16.30;99.90
9973;DHT22;5027;53.560;10.062;2023-04-24T14:58:12;16.40;99.90
9973;DHT22;5027;53.560;10.062;2023-04-24T15:00:39;16.20;99.90
9973;DHT22;5027;53.560;10.062;2023-04-24T15:03:05;16.30;99.90
9973;DHT22;5027;53.560;10.062;2023-04-24T15:05:33;16.30;99.90
9973;DHT22;5027;53.560;10.062;2023-04-24T15:08:00;16.20;99.90
9973;DHT22;5027;53.560;10.062;2023-04-24T15:10:27;16.00;99.90
9973;DHT22;5027;53.560;10.062;2023-04-24T15:12:55;15.90;99.90
9973;DHT22;5027;53.560;10.062;2023-04-24T15:15:22;15.90;99.90
9973;DHT22;5027;53.560;10.062;2023-04-24T15:17:49;16.20;99.90
9973;DHT22;5027;53.560;10.062;2023-04-24T15:20:15;15.90;99.90
9973;DHT22;5027;53.560;10.062;2023-04-24T15:22:42;15.70;99.90
9973;DHT22;5027;53.560;10.062;2023-04-24T15:25:09;15.70;99.90
9973;DHT22;5027;53.560;10.062;2023-04-24T15:27:43;15.90;99.90
9973;DHT22;5027;53.560;10.062;2023-04-24T15:30:11;16.00;99.90
9973;DHT22;5027;53.560;10.062;2023-04-24T15:32:38;16.30;99.90
9973;DHT22;5027;53.560;10.062;2023-04-24T15:35:06;16.50;99.90
9973;DHT22;5027;53.560;10.062;2023-04-24T15:37:36;16.10;99.90
9973;DHT22;5027;53.560;10.062;2023-04-24T15:40:03;16.30;99.90
9973;DHT22;5027;53.560;10.062;2023-04-24T15:42:32;16.10;99.90
9973;DHT22;5027;53.560;10.062;2023-04-24T15:44:59;16.00;99.90
9973;DHT22;5027;53.560;10.062;2023-04-24T15:47:26;16.00;99.90
9973;DHT22;5027;53.560;10.062;2023-04-24T15:49:53;16.20;99.90
9973;DHT22;5027;53.560;10.062;2023-04-24T15:52:20;16.50;99.90
9973;DHT22;5027;53.560;10.062;2023-04-24T15:54:47;16.70;99.90
9973;DHT22;5027;53.560;10.062;2023-04-24T15:57:14;16.80;99.90
9973;DHT22;5027;53.560;10.062;2023-04-24T15:59:41;17.10;99.90
9973;DHT22;5027;53.560;10.062;2023-04-24T16:02:08;17.20;99.90
9973;DHT22;5027;53.560;10.062;2023-04-24T16:04:37;17.30;99.90
9973;DHT22;5027;53.560;10.062;2023-04-24T16:07:04;17.30;99.90
9973;DHT22;5027;53.560;10.062;2023-04-24T16:09:31;16.40;99.90